Paddy Guidry — WTG3900 — position and weather

sailwx.info

Track history (hours):
 
Tides and Currents Weather Stations Pressure Air Temp Water Temp Dewpoint Dewpoint Depression Visibility Wind Speed Wind Dir Waves Ship Positions

Paddy Guidry

Owner: CAPTAIN TIMMY INC, GALLIANO, LA. More information available from US FCC via Universal Licensing System and Coast Guard Vessel Documentation Center.

Last reported at 2016-Jun-30 02:24 UTC. Time now 2016-Jun-30 17:49 UTC.
Position N 29°34' W 090°31'.

; draft 1.5 m.

Type: Tug. MMSI: 366998310.

Date/timePositionNaut miles runAvg speedWind from/ knotsBaromVisibWave heightAir tempDewpointWater temp
2016-Jun-30 02:24N 29°34' W 090°31'4 4.3
2016-Jun-30 01:33N 29°35' W 090°35'3 3.3
2016-Jun-30 00:33N 29°38' W 090°33'2 0.6
2016-Jun-29 21:23N 29°39' W 090°35'0 0.1
2016-Jun-29 20:32N 29°39' W 090°35'0 0.2
2016-Jun-29 19:33N 29°39' W 090°35'0 0.0
2016-Jun-29 18:31N 29°39' W 090°35'0 0.0
2016-Jun-29 17:33N 29°39' W 090°35'4 2.1
2016-Jun-29 15:33N 29°35' W 090°35'7 5.6
2016-Jun-29 14:21N 29°33' W 090°27'4 0.3
2016-Jun-29 02:33N 29°34' W 090°32'6 5.8
2016-Jun-29 01:33N 29°35' W 090°38'4 4.1
2016-Jun-29 00:33N 29°35' W 090°43'5 5.0
2016-Jun-28 23:33N 29°30' W 090°43'6 5.8
2016-Jun-28 22:27N 29°24' W 090°44'4 0.2
2016-Jun-28 04:24N 29°27' W 090°43'6 6.9
2016-Jun-28 03:34N 29°33' W 090°42'4 3.6
2016-Jun-28 02:34N 29°36' W 090°41'5 5.2
2016-Jun-28 01:33N 29°35' W 090°35'  
Track history (hours):
 
Tides and Currents Weather Stations Pressure Air Temp Water Temp Dewpoint Dewpoint Depression Visibility Wind Speed Wind Dir Waves Ship Positions

Paddy Guidry

Owner: CAPTAIN TIMMY INC, GALLIANO, LA. More information available from US FCC via Universal Licensing System and Coast Guard Vessel Documentation Center.

Last reported at 2016-Jun-30 02:24 UTC. Time now 2016-Jun-30 17:49 UTC.
Position N 29°34' W 090°31'.

; draft 1.5 m.

Type: Tug. MMSI: 366998310.

Date/timePositionNaut miles runAvg speedWind from/ knotsBaromVisibWave heightAir tempDewpointWater temp
2016-Jun-30 02:24N 29°34' W 090°31'4 4.3
2016-Jun-30 01:33N 29°35' W 090°35'3 3.3
2016-Jun-30 00:33N 29°38' W 090°33'2 0.6
2016-Jun-29 21:23N 29°39' W 090°35'0 0.1
2016-Jun-29 20:32N 29°39' W 090°35'0 0.2
2016-Jun-29 19:33N 29°39' W 090°35'0 0.0
2016-Jun-29 18:31N 29°39' W 090°35'0 0.0
2016-Jun-29 17:33N 29°39' W 090°35'4 2.1
2016-Jun-29 15:33N 29°35' W 090°35'7 5.6
2016-Jun-29 14:21N 29°33' W 090°27'4 0.3
2016-Jun-29 02:33N 29°34' W 090°32'6 5.8
2016-Jun-29 01:33N 29°35' W 090°38'4 4.1
2016-Jun-29 00:33N 29°35' W 090°43'5 5.0
2016-Jun-28 23:33N 29°30' W 090°43'6 5.8
2016-Jun-28 22:27N 29°24' W 090°44'4 0.2
2016-Jun-28 04:24N 29°27' W 090°43'6 6.9
2016-Jun-28 03:34N 29°33' W 090°42'4 3.6
2016-Jun-28 02:34N 29°36' W 090°41'5 5.2
2016-Jun-28 01:33N 29°35' W 090°35'  

Dump ship's entire track history